Crestview, FL

10:20 AM CST on February 11, 2016 (GMT -0600)
Sikes | | Change Station
CLOSE
Current Station
Airport
Location: Crestview,
Elevation: 213 ft
Nearby Weather Stations

Elev 213 ft 30.78 °N, 86.52 °W | Updated 27 minutes ago

Clear
Clear
63 °F
Feels Like 63 °F
N
16
Wind Variable Wind from WSW
Gusts 22 mph

Today
High -- | Low -- °F
--% Chance of Precip.
Yesterday
High -- | Low -- °F
Precip. -- in
Pressure 30.25 in
Visibility 10.0 miles
Clouds Clear
Dew Point 43 °F
Humidity 48%
Rainfall 0.00 in
Snow Depth Not available.
6:30 AM 5:30 PM
Waxing Crescent, 13% visible
METAR KCEW 111553Z AUTO 24014G19KT 10SM CLR 17/06 A3025 RMK AO2 SLP242 T01720061
Pressure 30.25 in
Visibility 10.0 miles
Clouds Clear
Dew Point 43 °F
Humidity 48%
Rainfall 0.00 in
Snow Depth Not available.
6:30 AM 5:30 PM
Waxing Crescent, 13% visible
METAR KCEW 111553Z AUTO 24014G19KT 10SM CLR 17/06 A3025 RMK AO2 SLP242 T01720061

10-Day Weather Forecast

Almanac

Astronomy

Feb. 11, 2016 Rise Set
Actual Time
Civil Twilight
Nautical Twilight
Astronomical Twilight
Moon
Length of Visible Light
Length of Day
Tomorrow will be .
, % of the Moon is Illuminated

Today's Extremes

State Highs State Lows

Community

WunderPhotos

Upload Photos

1,892,085 photos uploaded!

WunderBlog® & News

Nearby

Air Quality

  Air Quality AQ Index Pollutant
Not available.

Snow Depth

Station Depth Elevation

Earthquake Activity

City Distance Mag. Time & Date
Minimum magnitude displayed is 2.5.

Coastal Water Temperatures

Place Temperature

Stations

Nearby Weather Stations

Station Location Temp. Windchill Dew Point Humidity Wind Precip. Elev Updated Type
                   

Watches & Warnings

There are currently no watches in effect.